Time;durP1;ratioP1;P1;durP2;ratioP2;P2;SDS_P1;SDS_P2;PMS_P1;PMS_P2;Temp;Humidity;BMP_temperature;BMP_pressure;BME280_temperature;BME280_humidity;BME280_pressure;Samples;Min_cycle;Max_cycle;Signal;HPM_P1;HPM_P2
2023/11/13 00:01:26;;;;;;;5.28;2.80;;;;;;;9.93;100.00;98361.25;5052607;28;20539;-88
2023/11/13 00:03:51;;;;;;;0.40;0.40;;;;;;;9.92;100.00;98359.59;5036187;28;20443;-88
2023/11/13 00:06:17;;;;;;;0.40;0.40;;;;;;;9.93;100.00;98339.78;5068767;28;20033;-85
2023/11/13 00:08:43;;;;;;;0.30;0.30;;;;;;;9.89;100.00;98317.13;5053169;28;20029;-88
2023/11/13 00:11:08;;;;;;;0.40;0.40;;;;;;;9.89;100.00;98314.44;5036184;28;20045;-88
2023/11/13 00:13:34;;;;;;;0.40;0.40;;;;;;;9.93;100.00;98304.06;5036077;28;20028;-87
2023/11/13 00:15:59;;;;;;;0.40;0.40;;;;;;;9.90;100.00;98292.75;5019655;28;20032;-87
2023/11/13 00:18:25;;;;;;;0.30;0.30;;;;;;;9.90;100.00;98278.53;5052278;28;20029;-87
2023/11/13 00:20:51;;;;;;;0.40;0.40;;;;;;;9.90;100.00;98263.22;5019731;28;20090;-87
2023/11/13 00:23:17;;;;;;;0.40;0.40;;;;;;;9.89;100.00;98247.34;5036062;28;20464;-88
2023/11/13 00:25:43;;;;;;;0.40;0.40;;;;;;;9.88;100.00;98232.28;5053539;28;20056;-87
2023/11/13 00:28:08;;;;;;;0.40;0.40;;;;;;;9.93;100.00;98221.69;5020189;28;20040;-88
2023/11/13 00:30:34;;;;;;;0.35;0.35;;;;;;;9.94;100.00;98209.06;5052378;28;20482;-87
2023/11/13 00:32:59;;;;;;;0.40;0.40;;;;;;;9.89;100.00;98186.41;5019897;28;20547;-87
2023/11/13 00:35:25;;;;;;;0.30;0.30;;;;;;;9.94;100.00;98185.72;5052061;28;20390;-87
2023/11/13 00:37:50;;;;;;;0.40;0.40;;;;;;;9.94;100.00;98193.78;5052222;28;20029;-88
2023/11/13 00:40:16;;;;;;;0.35;0.35;;;;;;;9.93;100.00;98197.53;5053645;28;20032;-88
2023/11/13 00:42:41;;;;;;;0.40;0.40;;;;;;;9.95;100.00;98202.63;5051964;28;20119;-88
2023/11/13 00:45:07;;;;;;;0.40;0.40;;;;;;;9.96;100.00;98202.41;5053468;28;20051;-87
2023/11/13 00:47:33;;;;;;;0.30;0.30;;;;;;;9.97;100.00;98193.28;5020359;28;20072;-89
2023/11/13 00:49:58;;;;;;;0.40;0.40;;;;;;;9.93;100.00;98167.19;5056431;28;20481;-88
2023/11/13 00:52:24;;;;;;;0.40;0.40;;;;;;;9.93;100.00;98162.63;5023308;28;20483;-88
2023/11/13 00:54:49;;;;;;;0.40;0.40;;;;;;;9.92;100.00;98152.91;5056338;28;20032;-87
2023/11/13 00:57:15;;;;;;;0.40;0.40;;;;;;;9.94;100.00;98137.41;5055935;28;20032;-87
2023/11/13 00:59:40;;;;;;;0.40;0.40;;;;;;;9.88;100.00;98101.59;5056170;28;20383;-87
2023/11/13 01:02:06;;;;;;;0.40;0.40;;;;;;;9.90;100.00;98085.25;5057459;28;20032;-86
2023/11/13 01:04:32;;;;;;;0.40;0.40;;;;;;;9.87;100.00;98059.72;5056259;28;20086;-86
2023/11/13 01:06:57;;;;;;;0.40;0.40;;;;;;;9.86;100.00;98047.31;5063358;28;20033;-85
2023/11/13 01:09:23;;;;;;;0.40;0.40;;;;;;;9.85;100.00;98026.91;5072955;28;20035;-85
2023/11/13 01:11:50;;;;;;;0.30;0.30;;;;;;;9.84;100.00;98003.84;5029692;28;20383;-87
2023/11/13 01:14:16;;;;;;;0.40;0.40;;;;;;;9.80;100.00;97980.38;5023138;28;20071;-87
2023/11/13 01:16:42;;;;;;;0.30;0.30;;;;;;;9.78;100.00;97966.38;5056046;28;20041;-88
2023/11/13 01:19:07;;;;;;;0.40;0.40;;;;;;;9.79;100.00;97943.84;5055773;28;20077;-87
2023/11/13 01:21:33;;;;;;;0.40;0.40;;;;;;;9.78;100.00;97936.88;5056984;28;20029;-87
2023/11/13 01:23:58;;;;;;;0.40;0.40;;;;;;;9.76;100.00;97923.69;5039450;28;20149;-85
2023/11/13 01:26:25;;;;;;;0.40;0.40;;;;;;;9.73;100.00;97909.94;5038763;28;20386;-86
2023/11/13 01:28:51;;;;;;;0.40;0.40;;;;;;;9.76;100.00;97891.47;5038969;28;20040;-86
2023/11/13 01:31:16;;;;;;;0.40;0.40;;;;;;;9.80;100.00;97886.47;5039112;28;20037;-87
2023/11/13 01:33:42;;;;;;;0.35;0.35;;;;;;;9.80;100.00;97884.59;5055819;28;20021;-87
2023/11/13 01:36:08;;;;;;;0.40;0.40;;;;;;;9.83;100.00;97867.19;5055449;28;20033;-87
2023/11/13 01:38:33;;;;;;;0.40;0.40;;;;;;;9.81;100.00;97837.09;5055619;28;20033;-88
2023/11/13 01:40:59;;;;;;;0.30;0.30;;;;;;;9.81;100.00;97812.94;5022262;28;20033;-86
2023/11/13 01:43:25;;;;;;;0.40;0.40;;;;;;;9.85;100.00;97789.94;5056745;28;20033;-87
2023/11/13 01:45:55;;;;;;;0.40;0.40;;;;;;;9.83;100.00;97766.03;5055523;28;20035;-87
2023/11/13 01:48:21;;;;;;;0.30;0.30;;;;;;;9.87;100.00;97739.50;5038809;28;20021;-87
2023/11/13 01:50:48;;;;;;;0.40;0.40;;;;;;;9.88;100.00;97733.91;5038484;28;20112;-90
2023/11/13 01:53:14;;;;;;;0.40;0.40;;;;;;;9.90;100.00;97709.50;5055232;28;20075;-89
2023/11/13 01:55:40;;;;;;;0.40;0.40;;;;;;;9.90;100.00;97690.72;5038774;28;20610;-87
2023/11/13 01:58:06;;;;;;;0.40;0.40;;;;;;;9.93;100.00;97679.50;5055040;28;20033;-89
2023/11/13 02:00:33;;;;;;;0.40;0.40;;;;;;;9.96;100.00;97654.03;5055108;28;20076;-87
2023/11/13 02:02:59;;;;;;;0.40;0.40;;;;;;;9.96;100.00;97630.69;5055261;28;20037;-89
2023/11/13 02:05:24;;;;;;;0.40;0.40;;;;;;;10.01;100.00;97600.44;5054908;28;20031;-89
2023/11/13 02:07:51;;;;;;;0.40;0.40;;;;;;;10.04;100.00;97595.34;5056028;28;20037;-89
2023/11/13 02:10:17;;;;;;;0.40;0.40;;;;;;;10.09;100.00;97578.50;5038481;28;20528;-88
2023/11/13 02:12:43;;;;;;;0.40;0.40;;;;;;;10.13;100.00;97528.59;5038882;28;20033;-89
2023/11/13 02:15:09;;;;;;;0.30;0.30;;;;;;;10.17;100.00;97519.00;5021898;28;20194;-88
2023/11/13 02:17:34;;;;;;;0.40;0.40;;;;;;;10.16;100.00;97506.66;5054790;28;20119;-89
2023/11/13 02:20:00;;;;;;;0.40;0.40;;;;;;;10.10;100.00;97484.28;5056004;28;20417;-88
2023/11/13 02:22:26;;;;;;;0.40;0.40;;;;;;;10.23;100.00;97480.38;5054769;28;20170;-88
2023/11/13 02:24:52;;;;;;;0.40;0.40;;;;;;;10.27;100.00;97464.59;5055810;28;20032;-88
2023/11/13 02:27:18;;;;;;;0.30;0.30;;;;;;;10.26;100.00;97422.69;5038212;28;20044;-88
2023/11/13 02:29:45;;;;;;;0.30;0.30;;;;;;;10.35;100.00;97415.81;5038222;28;20066;-88
2023/11/13 02:32:10;;;;;;;0.40;0.40;;;;;;;10.36;100.00;97389.78;5055413;28;20032;-89
2023/11/13 02:34:36;;;;;;;0.40;0.40;;;;;;;10.37;100.00;97334.97;5054250;28;20115;-89
2023/11/13 02:37:02;;;;;;;0.38;0.38;;;;;;;10.36;100.00;97339.56;5055016;28;20438;-89
2023/11/13 02:39:27;;;;;;;0.40;0.40;;;;;;;10.40;100.00;97311.13;5056130;28;20440;-90
2023/11/13 02:41:55;;;;;;;0.40;0.40;;;;;;;10.41;100.00;97280.50;5056456;28;20089;-91
2023/11/13 02:44:21;;;;;;;0.40;0.40;;;;;;;10.50;100.00;97287.00;5054549;28;20099;-89
2023/11/13 02:46:47;;;;;;;0.40;0.40;;;;;;;10.57;100.00;97263.41;5054565;28;20467;-89
2023/11/13 02:49:13;;;;;;;0.40;0.40;;;;;;;10.60;100.00;97264.75;5055464;28;20029;-92
2023/11/13 02:51:38;;;;;;;0.40;0.40;;;;;;;10.63;100.00;97279.53;5037790;28;20033;-92
2023/11/13 02:54:04;;;;;;;0.40;0.40;;;;;;;10.73;100.00;97274.22;5054563;28;20029;-89
2023/11/13 02:56:30;;;;;;;0.30;0.30;;;;;;;10.87;100.00;97251.16;5055592;28;20486;-89
2023/11/13 02:58:56;;;;;;;0.40;0.40;;;;;;;10.95;100.00;97245.25;5055523;28;20102;-89
2023/11/13 03:01:22;;;;;;;0.40;0.40;;;;;;;11.03;100.00;97240.44;5054777;28;20459;-88
2023/11/13 03:03:47;;;;;;;0.40;0.40;;;;;;;11.12;100.00;97236.19;5037921;28;20124;-89
2023/11/13 03:06:13;;;;;;;0.40;0.40;;;;;;;11.25;100.00;97233.00;5054286;28;20108;-91
2023/11/13 03:08:41;;;;;;;0.40;0.40;;;;;;;11.42;100.00;97222.78;5057300;28;20062;-90
2023/11/13 03:11:07;;;;;;;0.40;0.40;;;;;;;11.57;100.00;97219.28;5057371;28;20126;-90
2023/11/13 03:13:32;;;;;;;0.40;0.40;;;;;;;11.68;100.00;97236.25;5060306;28;20464;-91
2023/11/13 03:15:58;;;;;;;0.40;0.40;;;;;;;11.76;100.00;97213.38;5062557;28;20036;-91
2023/11/13 03:18:24;;;;;;;0.30;0.30;;;;;;;11.76;100.00;97216.06;5065529;28;20060;-89
2023/11/13 03:20:50;;;;;;;0.30;0.30;;;;;;;11.77;100.00;97223.84;5067108;28;20104;-91
2023/11/13 03:23:15;;;;;;;0.30;0.30;;;;;;;11.73;100.00;97228.19;5067070;28;20029;-90
2023/11/13 03:25:41;;;;;;;0.40;0.40;;;;;;;11.63;100.00;97202.06;5075807;28;20069;-90
2023/11/13 03:28:08;;;;;;;0.40;0.40;;;;;;;11.24;100.00;97212.53;5076984;28;20033;-91
2023/11/13 03:30:36;;;;;;;0.40;0.40;;;;;;;10.87;100.00;97226.97;5061780;28;20039;-91
2023/11/13 03:33:03;;;;;;;0.40;0.40;;;;;;;10.57;100.00;97198.91;5065956;28;20041;-91
2023/11/13 03:35:29;;;;;;;0.40;0.40;;;;;;;10.31;100.00;97187.25;5048572;28;20380;-91
2023/11/13 03:37:56;;;;;;;0.30;0.30;;;;;;;10.26;100.00;97206.00;5058888;28;20035;-92
2023/11/13 03:40:21;;;;;;;0.30;0.30;;;;;;;10.26;100.00;97146.13;5068845;28;20037;-91
2023/11/13 03:42:47;;;;;;;4.97;0.70;;;;;;;10.33;100.00;97152.91;5067156;28;20037;-91
2023/11/13 03:45:12;;;;;;;1.95;0.93;;;;;;;10.34;100.00;97185.94;5055696;28;20025;-91
2023/11/13 03:47:38;;;;;;;1.67;0.50;;;;;;;10.32;100.00;97204.19;5067232;28;20139;-90
2023/11/13 03:50:06;;;;;;;0.73;0.65;;;;;;;10.29;100.00;97202.84;5067843;28;20012;-90
2023/11/13 03:52:33;;;;;;;3.05;1.00;;;;;;;10.20;100.00;97216.97;5070929;28;20089;-91
2023/11/13 03:54:58;;;;;;;9.77;2.42;;;;;;;10.19;100.00;97205.44;5070168;28;20033;-90
2023/11/13 03:57:25;;;;;;;4.88;1.90;;;;;;;10.10;100.00;97185.50;5051738;28;20041;-91
2023/11/13 03:59:52;;;;;;;3.65;1.55;;;;;;;9.91;100.00;97220.03;5052725;28;20076;-91
2023/11/13 04:02:18;;;;;;;3.28;1.58;;;;;;;9.76;100.00;97244.06;5059097;28;20119;-93
2023/11/13 04:04:44;;;;;;;3.05;1.23;;;;;;;9.60;100.00;97257.34;5037901;28;20119;-92
2023/11/13 04:07:10;;;;;;;3.17;1.50;;;;;;;9.33;100.00;97251.19;5021032;28;20037;-92
2023/11/13 04:09:36;;;;;;;5.55;2.10;;;;;;;9.16;100.00;97259.34;5037442;28;20391;-92
2023/11/13 04:12:01;;;;;;;3.15;1.05;;;;;;;9.01;100.00;97271.50;5054434;28;20044;-93
2023/11/13 04:14:27;;;;;;;3.17;1.17;;;;;;;8.87;100.00;97258.78;5055419;28;20039;-91
2023/11/13 04:16:54;;;;;;;3.58;1.20;;;;;;;8.89;100.00;97294.97;5038207;28;20068;-92
2023/11/13 04:19:22;;;;;;;1.75;0.80;;;;;;;8.87;100.00;97275.66;5054921;28;20033;-92
2023/11/13 04:21:48;;;;;;;0.40;0.40;;;;;;;8.81;100.00;97338.25;5053517;28;20549;-92
2023/11/13 04:24:14;;;;;;;0.40;0.40;;;;;;;8.82;100.00;97372.03;5053920;28;20029;-90
2023/11/13 04:26:40;;;;;;;0.40;0.40;;;;;;;8.73;100.00;97385.03;5053171;28;20422;-91
2023/11/13 04:29:05;;;;;;;0.40;0.40;;;;;;;8.56;100.00;97406.47;5053423;28;20124;-92
2023/11/13 04:31:31;;;;;;;0.40;0.40;;;;;;;8.49;100.00;97415.72;5053171;28;20036;-92
2023/11/13 04:33:57;;;;;;;0.40;0.40;;;;;;;8.43;100.00;97430.09;5054197;28;20071;-91
2023/11/13 04:36:23;;;;;;;0.40;0.40;;;;;;;8.36;100.00;97438.25;5052781;28;20047;-91
2023/11/13 04:38:48;;;;;;;0.40;0.40;;;;;;;8.31;100.00;97444.34;5053693;28;20033;-90
2023/11/13 04:41:16;;;;;;;0.30;0.30;;;;;;;8.21;100.00;97433.47;5053275;28;20031;-92
2023/11/13 04:43:45;;;;;;;0.50;0.50;;;;;;;8.10;100.00;97472.63;5053472;28;20044;-91
2023/11/13 04:46:12;;;;;;;0.40;0.40;;;;;;;8.00;100.00;97474.31;5053176;28;20414;-91
2023/11/13 04:48:39;;;;;;;0.40;0.40;;;;;;;7.90;100.00;97499.78;5052769;28;20032;-91
2023/11/13 04:51:05;;;;;;;0.40;0.40;;;;;;;7.78;100.00;97508.91;5054240;28;20460;-91
2023/11/13 04:53:31;;;;;;;0.40;0.40;;;;;;;7.77;100.00;97526.81;5036535;28;20033;-91
2023/11/13 04:55:56;;;;;;;0.40;0.40;;;;;;;7.74;100.00;97529.97;5053473;28;20029;-90
2023/11/13 04:58:22;;;;;;;0.40;0.40;;;;;;;7.67;100.00;97554.19;5053430;28;20132;-91
2023/11/13 05:00:47;;;;;;;0.40;0.40;;;;;;;7.75;100.00;97574.38;5053739;28;20111;-91
2023/11/13 05:03:14;;;;;;;0.40;0.40;;;;;;;7.77;100.00;97577.63;5053055;28;20052;-92
2023/11/13 05:05:39;;;;;;;0.40;0.40;;;;;;;7.80;100.00;97608.44;5052747;28;20040;-91
2023/11/13 05:08:05;;;;;;;0.40;0.40;;;;;;;7.80;100.00;97605.78;5036450;28;20040;-92
2023/11/13 05:10:32;;;;;;;0.40;0.40;;;;;;;7.84;100.00;97623.00;5053411;28;20427;-92
2023/11/13 05:12:58;;;;;;;0.30;0.30;;;;;;;7.84;100.00;97629.16;5019741;28;20442;-92
2023/11/13 05:15:24;;;;;;;0.40;0.40;;;;;;;7.81;100.00;97632.28;5052551;28;20079;-92
2023/11/13 05:17:50;;;;;;;0.68;0.63;;;;;;;7.80;100.00;97636.00;5054067;28;20033;-92
2023/11/13 05:20:17;;;;;;;0.73;0.60;;;;;;;7.76;100.00;97636.72;5052610;28;20033;-90
2023/11/13 05:22:43;;;;;;;0.40;0.40;;;;;;;7.73;100.00;97648.69;5054020;28;20051;-92
2023/11/13 05:25:09;;;;;;;0.80;0.80;;;;;;;7.76;100.00;97664.28;5053340;28;20033;-92
2023/11/13 05:27:34;;;;;;;1.85;0.60;;;;;;;7.83;100.00;97654.28;5053054;28;20029;-93
2023/11/13 05:30:00;;;;;;;1.23;0.57;;;;;;;7.88;100.00;97678.44;5053164;28;20036;-93
2023/11/13 05:32:26;;;;;;;0.50;0.50;;;;;;;7.85;100.00;97678.91;5053869;28;20028;-92
2023/11/13 05:34:52;;;;;;;1.20;0.43;;;;;;;7.88;100.00;97689.13;5062614;28;20510;-93
2023/11/13 05:37:17;;;;;;;0.40;0.40;;;;;;;7.99;100.00;97698.22;5076267;28;20063;-91
2023/11/13 05:39:43;;;;;;;0.40;0.40;;;;;;;7.97;100.00;97708.34;5080719;28;20072;-92
2023/11/13 05:42:08;;;;;;;0.40;0.40;;;;;;;7.98;100.00;97725.22;5055811;28;20115;-93
2023/11/13 05:44:36;;;;;;;0.50;0.50;;;;;;;8.03;100.00;97714.63;5057549;28;20025;-92
2023/11/13 05:47:05;;;;;;;0.70;0.70;;;;;;;8.10;100.00;97732.19;5056653;28;20029;-92
2023/11/13 05:49:33;;;;;;;0.63;0.60;;;;;;;8.10;100.00;97758.94;5057478;28;20033;-93
2023/11/13 05:51:58;;;;;;;1.20;0.50;;;;;;;8.00;100.00;97742.66;5056763;28;20029;-93
2023/11/13 05:54:24;;;;;;;0.40;0.40;;;;;;;7.97;100.00;97756.50;5056597;28;20455;-93
2023/11/13 05:56:50;;;;;;;0.50;0.50;;;;;;;8.01;100.00;97775.56;5056597;28;20071;-93
2023/11/13 05:59:16;;;;;;;0.40;0.40;;;;;;;7.98;100.00;97789.41;5056251;28;20040;-93
2023/11/13 06:01:42;;;;;;;0.40;0.40;;;;;;;8.01;100.00;97775.56;5057016;28;20464;-93
2023/11/13 06:04:07;;;;;;;0.40;0.40;;;;;;;8.07;100.00;97826.31;5056173;28;20407;-92
2023/11/13 06:06:33;;;;;;;0.40;0.40;;;;;;;8.05;100.00;97824.91;5056047;28;20033;-93
2023/11/13 06:08:59;;;;;;;0.60;0.55;;;;;;;8.00;100.00;97825.59;5023184;28;20040;-92
2023/11/13 06:11:25;;;;;;;0.40;0.40;;;;;;;7.93;100.00;97848.97;5023322;28;20075;-93
2023/11/13 06:13:51;;;;;;;0.50;0.50;;;;;;;7.96;100.00;97831.63;5040519;28;20061;-93
2023/11/13 06:16:17;;;;;;;0.40;0.40;;;;;;;7.98;100.00;97842.94;5056083;28;20498;-92
2023/11/13 06:18:47;;;;;;;0.47;0.47;;;;;;;8.08;100.00;97867.28;5055901;28;20033;-92
2023/11/13 06:21:13;;;;;;;0.40;0.40;;;;;;;8.10;100.00;97849.13;5039601;28;20041;-92
2023/11/13 06:23:42;;;;;;;0.40;0.40;;;;;;;8.02;100.00;97876.19;5056957;28;20040;-93
2023/11/13 06:26:11;;;;;;;0.40;0.40;;;;;;;7.97;100.00;97894.81;5055522;28;20043;-92
2023/11/13 06:28:38;;;;;;;0.40;0.40;;;;;;;7.93;100.00;97887.22;5039480;28;20036;-92
2023/11/13 06:31:05;;;;;;;0.40;0.40;;;;;;;7.99;100.00;97896.22;5056673;28;20037;-91
2023/11/13 06:33:33;;;;;;;0.88;0.85;;;;;;;8.02;100.00;97906.47;5039501;28;20068;-91
2023/11/13 06:35:58;;;;;;;3.15;1.05;;;;;;;8.04;100.00;97916.94;5055469;28;20379;-90
2023/11/13 06:38:24;;;;;;;6.15;1.00;;;;;;;8.08;100.00;97932.31;5055152;28;20021;-92
2023/11/13 06:40:49;;;;;;;0.50;0.50;;;;;;;8.17;100.00;97937.31;5056219;28;20532;-91
2023/11/13 06:43:15;;;;;;;0.47;0.47;;;;;;;8.24;100.00;97940.72;5056016;28;20071;-91
2023/11/13 06:45:43;;;;;;;1.17;0.52;;;;;;;8.21;100.00;97947.34;5037931;28;20052;-91
2023/11/13 06:48:09;;;;;;;0.88;0.75;;;;;;;8.18;100.00;97941.63;5055070;28;20039;-91
2023/11/13 06:50:36;;;;;;;3.85;1.45;;;;;;;8.17;100.00;97964.91;5021993;28;20036;-91
2023/11/13 06:53:02;;;;;;;4.55;1.33;;;;;;;8.16;100.00;97968.63;5038628;28;20041;-91
2023/11/13 06:55:28;;;;;;;0.93;0.65;;;;;;;8.15;100.00;97967.00;5038375;28;20029;-91
2023/11/13 06:57:54;;;;;;;3.13;1.10;;;;;;;8.08;100.00;97963.59;5054914;28;20029;-91
2023/11/13 07:00:21;;;;;;;1.95;0.55;;;;;;;8.09;100.00;97998.16;5054757;28;20060;-91
2023/11/13 07:02:49;;;;;;;1.65;0.80;;;;;;;8.09;100.00;97995.47;5021719;28;20063;-91
2023/11/13 07:05:15;;;;;;;0.63;0.63;;;;;;;8.12;100.00;98004.91;5054750;28;20100;-92
2023/11/13 07:07:41;;;;;;;7.15;1.92;;;;;;;8.18;100.00;98006.69;5054905;28;20505;-91
2023/11/13 07:10:12;;;;;;;2.70;0.80;;;;;;;8.23;100.00;98012.19;5055846;28;20068;-91
2023/11/13 07:12:42;;;;;;;1.63;0.88;;;;;;;8.38;100.00;98012.56;5038865;28;20061;-91
2023/11/13 07:15:08;;;;;;;2.17;1.10;;;;;;;8.49;100.00;98023.56;5054481;28;20082;-90
2023/11/13 07:17:34;;;;;;;4.28;0.85;;;;;;;8.51;100.00;98029.50;5037878;28;20056;-91
2023/11/13 07:20:00;;;;;;;9.38;1.48;;;;;;;8.52;100.00;98041.84;5054240;28;20048;-91
2023/11/13 07:22:27;;;;;;;3.05;1.65;;;;;;;8.54;100.00;98042.44;5054508;28;20505;-90
2023/11/13 07:24:53;;;;;;;5.50;1.27;;;;;;;8.52;100.00;98050.72;5053998;28;20460;-91
2023/11/13 07:27:19;;;;;;;0.60;0.60;;;;;;;8.57;100.00;98061.56;5037567;28;20036;-91
2023/11/13 07:29:45;;;;;;;1.02;0.68;;;;;;;8.59;100.00;98061.31;5038318;28;20040;-91
2023/11/13 07:32:11;;;;;;;3.40;1.10;;;;;;;8.58;100.00;98073.09;5055178;28;20490;-90
2023/11/13 07:34:36;;;;;;;2.42;0.82;;;;;;;8.50;100.00;98087.63;5055609;28;20391;-91
2023/11/13 07:37:03;;;;;;;3.42;1.00;;;;;;;8.45;100.00;98089.34;5054477;28;20036;-91
2023/11/13 07:39:31;;;;;;;3.75;0.88;;;;;;;8.35;100.00;98104.06;5056181;28;20032;-91
2023/11/13 07:41:57;;;;;;;3.63;0.75;;;;;;;8.24;100.00;98107.50;5055804;28;20025;-91
2023/11/13 07:44:23;;;;;;;1.60;0.95;;;;;;;8.13;100.00;98110.94;5056179;28;20083;-91
2023/11/13 07:46:51;;;;;;;3.60;1.38;;;;;;;8.10;100.00;98122.09;5058930;28;20029;-91
2023/11/13 07:49:17;;;;;;;3.47;0.80;;;;;;;8.12;100.00;98117.31;5037726;28;20020;-89
2023/11/13 07:51:43;;;;;;;2.30;0.68;;;;;;;8.09;100.00;98123.94;5061826;28;20044;-90
2023/11/13 07:54:09;;;;;;;1.40;0.57;;;;;;;8.09;100.00;98131.16;5056732;28;20025;-90
2023/11/13 07:56:38;;;;;;;3.58;0.88;;;;;;;8.13;100.00;98156.44;5053746;28;20057;-91
2023/11/13 07:59:11;;;;;;;2.22;0.93;;;;;;;8.15;100.00;98168.56;5041603;28;20041;-90
2023/11/13 08:01:37;;;;;;;4.15;1.05;;;;;;;8.19;100.00;98174.28;5057919;28;20039;-90
2023/11/13 08:04:07;;;;;;;2.28;0.82;;;;;;;8.29;100.00;98179.94;5058567;28;20071;-90
2023/11/13 08:06:33;;;;;;;5.40;1.27;;;;;;;8.42;100.00;98180.84;5024889;28;20056;-90
2023/11/13 08:08:59;;;;;;;8.88;1.58;;;;;;;8.52;100.00;98189.16;5040873;28;20037;-89
2023/11/13 08:11:25;;;;;;;5.68;1.50;;;;;;;8.47;100.00;98192.53;5058097;28;20074;-90
2023/11/13 08:13:51;;;;;;;2.60;1.00;;;;;;;8.40;100.00;98199.81;5041389;28;20041;-90
2023/11/13 08:16:18;;;;;;;3.03;1.08;;;;;;;8.36;100.00;98212.81;5057265;28;20128;-89
2023/11/13 08:18:44;;;;;;;0.70;0.70;;;;;;;8.40;100.00;98228.44;5057561;28;20029;-89
2023/11/13 08:21:10;;;;;;;0.90;0.60;;;;;;;8.50;100.00;98223.38;5059966;28;20051;-88
2023/11/13 08:23:36;;;;;;;2.15;0.60;;;;;;;8.53;100.00;98239.00;5058593;28;20558;-90
2023/11/13 08:26:03;;;;;;;2.78;1.80;;;;;;;8.52;100.00;98245.38;5043304;28;20036;-88
2023/11/13 08:28:31;;;;;;;1.15;0.80;;;;;;;8.58;100.00;98261.38;5043272;28;20043;-88
2023/11/13 08:30:58;;;;;;;4.13;1.45;;;;;;;8.63;100.00;98266.09;5059077;28;20123;-89
2023/11/13 08:33:23;;;;;;;3.42;1.48;;;;;;;8.85;100.00;98269.09;5057578;28;20111;-90
2023/11/13 08:35:49;;;;;;;6.78;1.40;;;;;;;9.20;100.00;98271.13;5056697;28;20036;-90
2023/11/13 08:38:16;;;;;;;1.52;0.95;;;;;;;9.32;100.00;98290.75;5057630;28;20064;-90
2023/11/13 08:40:42;;;;;;;3.42;1.40;;;;;;;9.23;100.00;98309.03;5054969;28;20029;-91
2023/11/13 08:43:10;;;;;;;3.53;1.00;;;;;;;8.82;100.00;98306.25;5053576;28;20033;-92
2023/11/13 08:45:37;;;;;;;1.52;1.48;;;;;;;8.54;100.00;98319.13;5054678;28;20118;-91
2023/11/13 08:48:24;;;;;;;3.15;0.93;;;;;;;8.44;100.00;98301.94;5054445;28;20043;-91
2023/11/13 08:50:49;;;;;;;4.18;1.00;;;;;;;8.58;100.00;98324.88;5039927;28;20399;-91
2023/11/13 08:53:17;;;;;;;0.75;0.55;;;;;;;8.52;100.00;98336.44;5052709;28;20130;-90
2023/11/13 08:55:42;;;;;;;9.02;1.25;;;;;;;8.46;100.00;98342.69;5051345;28;20471;-89
2023/11/13 08:58:08;;;;;;;1.65;0.95;;;;;;;8.49;100.00;98351.09;5053276;28;20021;-90
2023/11/13 09:00:41;;;;;;;2.55;0.73;;;;;;;8.52;100.00;98347.16;5036525;28;20025;-90
2023/11/13 09:03:11;;;;;;;6.30;1.57;;;;;;;8.81;100.00;98361.69;5054804;28;20033;-89
2023/11/13 09:05:37;;;;;;;1.95;0.85;;;;;;;9.04;100.00;98377.09;5036337;28;20044;-89
2023/11/13 09:08:08;;;;;;;3.75;0.80;;;;;;;9.29;100.00;98376.19;5054135;28;20021;-90
2023/11/13 09:10:37;;;;;;;;;;;;;;;9.61;100.00;98384.84;5041041;28;20127;-91
2023/11/13 09:13:03;;;;;;;4.40;1.02;;;;;;;10.04;100.00;98373.88;5058505;28;19942;-90
2023/11/13 09:15:30;;;;;;;8.30;2.08;;;;;;;10.40;100.00;98377.47;5039807;28;20484;-91
2023/11/13 09:18:05;;;;;;;4.35;1.40;;;;;;;10.66;100.00;98389.59;5023648;28;20126;-90
2023/11/13 09:20:41;;;;;;;4.95;1.65;;;;;;;11.17;100.00;98401.47;5026456;28;20037;-90
2023/11/13 09:23:09;;;;;;;4.22;1.27;;;;;;;12.06;100.00;98410.97;5058254;28;20419;-91
2023/11/13 09:25:34;;;;;;;5.53;2.33;;;;;;;12.39;100.00;98420.16;5057595;28;20040;-91
2023/11/13 09:28:00;;;;;;;6.40;1.48;;;;;;;11.48;100.00;98428.16;5056809;28;20037;-91
2023/11/13 09:30:39;;;;;;;4.53;1.15;;;;;;;10.71;100.00;98421.16;5057152;28;20402;-91
2023/11/13 09:33:08;;;;;;;3.47;0.80;;;;;;;9.88;100.00;98434.41;5024401;28;20369;-91
2023/11/13 09:35:34;;;;;;;3.10;0.82;;;;;;;9.33;100.00;98447.91;5056381;28;20032;-89
2023/11/13 09:38:01;;;;;;;0.30;0.30;;;;;;;8.78;100.00;98455.91;5038881;28;20036;-89
2023/11/13 09:40:29;;;;;;;0.32;0.32;;;;;;;8.71;100.00;98452.50;5055485;28;20025;-90
2023/11/13 09:43:20;;;;;;;0.50;0.50;;;;;;;9.01;100.00;98466.81;5039194;28;20029;-89
2023/11/13 09:45:51;;;;;;;0.40;0.40;;;;;;;9.51;100.00;98471.22;5023014;28;20057;-90
2023/11/13 09:48:19;;;;;;;0.40;0.40;;;;;;;9.94;100.00;98480.19;5040694;28;20048;-91
2023/11/13 09:50:50;;;;;;;0.50;0.50;;;;;;;11.13;100.00;98483.69;5023315;28;20037;-91
2023/11/13 09:53:20;;;;;;;0.50;0.50;;;;;;;12.09;100.00;98492.13;5039626;28;20382;-91
2023/11/13 09:55:49;;;;;;;0.50;0.50;;;;;;;12.63;100.00;98507.09;5022988;28;20033;-91
2023/11/13 09:58:15;;;;;;;0.40;0.40;;;;;;;13.04;100.00;98500.44;5055895;28;20091;-92
2023/11/13 10:00:56;;;;;;;0.50;0.50;;;;;;;13.28;100.00;98509.19;5056418;28;20037;-89
2023/11/13 10:03:46;;;;;;;0.50;0.50;;;;;;;13.53;100.00;98519.53;5038534;28;20033;-91
2023/11/13 10:06:16;;;;;;;0.50;0.50;;;;;;;13.37;100.00;98523.91;5039321;28;20033;-91
2023/11/13 10:08:46;;;;;;;0.50;0.50;;;;;;;13.58;100.00;98535.78;5025982;28;20041;-91
2023/11/13 10:11:12;;;;;;;0.38;0.38;;;;;;;12.96;100.00;98541.31;5047155;28;20033;-89
2023/11/13 10:13:43;;;;;;;0.40;0.40;;;;;;;12.56;100.00;98544.97;5069201;28;20013;-90
2023/11/13 10:16:27;;;;;;;0.47;0.47;;;;;;;12.76;100.00;98553.41;5075782;28;20075;-88
2023/11/13 10:19:13;;;;;;;0.50;0.50;;;;;;;12.90;100.00;98561.19;5030847;28;20021;-91
2023/11/13 10:22:03;;;;;;;0.50;0.50;;;;;;;13.59;100.00;98558.19;5023102;28;20029;-92
2023/11/13 10:24:29;;;;;;;1.25;0.70;;;;;;;13.48;100.00;98576.16;5039423;28;20029;-91
2023/11/13 10:27:06;;;;;;;5.97;0.90;;;;;;;13.06;100.00;98584.66;5036835;28;20399;-91
2023/11/13 10:29:32;;;;;;;9.32;1.08;;;;;;;13.20;100.00;98582.44;5056471;28;20025;-92
2023/11/13 10:32:01;;;;;;;4.20;1.10;;;;;;;12.72;100.00;98586.50;5054252;28;20032;-84
2023/11/13 10:34:49;;;;;;;3.65;1.20;;;;;;;12.72;100.00;98587.31;5037495;28;20033;-85
2023/11/13 10:37:19;;;;;;;1.58;0.90;;;;;;;12.30;100.00;98595.72;5055106;28;20041;-84
2023/11/13 10:39:54;;;;;;;5.63;1.17;;;;;;;11.82;100.00;98593.34;5038261;28;20383;-85
2023/11/13 10:42:23;;;;;;;3.88;1.10;;;;;;;11.05;100.00;98598.88;5054131;28;20056;-85
2023/11/13 10:44:50;;;;;;;2.17;1.40;;;;;;;10.60;100.00;98615.47;5037426;28;20041;-84
2023/11/13 10:47:35;;;;;;;5.05;1.02;;;;;;;10.39;100.00;98620.28;5036766;28;20028;-84
2023/11/13 10:50:08;;;;;;;7.25;1.23;;;;;;;10.69;100.00;98624.81;5053541;28;20070;-84
2023/11/13 10:52:35;;;;;;;1.70;0.75;;;;;;;10.88;100.00;98622.91;5025684;28;20106;-85
2023/11/13 10:55:04;;;;;;;4.40;0.95;;;;;;;10.62;100.00;98632.19;5053739;28;20059;-85
2023/11/13 10:57:33;;;;;;;9.90;2.15;;;;;;;10.32;100.00;98635.69;5053594;28;20029;-84
2023/11/13 10:59:59;;;;;;;1.60;0.82;;;;;;;10.32;100.00;98644.56;5053458;28;20033;-84
2023/11/13 11:02:45;;;;;;;6.72;1.77;;;;;;;10.21;100.00;98647.94;5053044;28;20108;-84
2023/11/13 11:05:22;;;;;;;1.50;0.80;;;;;;;10.11;100.00;98664.59;5054734;28;20484;-85
2023/11/13 11:07:55;;;;;;;4.22;1.33;;;;;;;10.11;100.00;98678.03;5053373;28;20062;-85
2023/11/13 11:10:24;;;;;;;0.50;0.50;;;;;;;9.98;100.00;98680.06;5053279;28;20029;-83
2023/11/13 11:13:11;;;;;;;0.40;0.40;;;;;;;10.12;100.00;98673.47;5036782;28;20033;-82
2023/11/13 11:16:05;;;;;;;0.50;0.50;;;;;;;10.17;100.00;98665.56;5036628;28;20064;-83
2023/11/13 11:18:37;;;;;;;0.40;0.40;;;;;;;10.44;100.00;98686.78;5036982;28;20119;-83
2023/11/13 11:21:28;;;;;;;0.47;0.47;;;;;;;11.17;100.00;98686.59;5020384;28;20041;-83
2023/11/13 11:24:04;;;;;;;0.47;0.47;;;;;;;11.75;100.00;98685.03;5054715;28;20044;-84
2023/11/13 11:26:49;;;;;;;0.55;0.55;;;;;;;11.91;100.00;98690.78;5019933;28;20037;-83
2023/11/13 11:29:35;;;;;;;0.47;0.47;;;;;;;11.66;100.00;98687.22;5052473;28;20470;-83
2023/11/13 11:32:13;;;;;;;0.50;0.50;;;;;;;11.33;100.00;98682.41;5052287;28;20029;-84
2023/11/13 11:34:43;;;;;;;0.50;0.50;;;;;;;11.11;100.00;98686.69;5053037;28;20025;-84